Time;durP1;ratioP1;P1;durP2;ratioP2;P2;SDS_P1;SDS_P2;PMS_P1;PMS_P2;Temp;Humidity;BMP_temperature;BMP_pressure;BME280_temperature;BME280_humidity;BME280_pressure;Samples;Min_cycle;Max_cycle;Signal;HPM_P1;HPM_P2
2021/01/15 00:01:04;;;;;;;2.08;1.00;;;21.30;47.20;;;;;;4954591;28;20031;-68
2021/01/15 00:03:33;;;;;;;1.90;1.00;;;21.30;47.20;;;;;;4969057;28;20093;-67
2021/01/15 00:05:58;;;;;;;2.13;1.27;;;21.30;47.20;;;;;;4967484;28;20308;-67
2021/01/15 00:08:24;;;;;;;2.42;1.30;;;21.30;47.20;;;;;;4958874;28;20270;-67
2021/01/15 00:10:49;;;;;;;1.98;1.10;;;21.30;47.20;;;;;;4949752;28;20057;-67
2021/01/15 00:13:15;;;;;;;2.30;1.20;;;21.30;47.20;;;;;;4957251;28;20039;-68
2021/01/15 00:15:41;;;;;;;1.48;1.00;;;21.20;47.20;;;;;;4963338;28;20049;-68
2021/01/15 00:18:06;;;;;;;1.88;1.20;;;21.20;47.20;;;;;;4952621;28;20047;-67
2021/01/15 00:20:32;;;;;;;1.77;1.10;;;21.20;47.20;;;;;;4951777;28;20027;-68
2021/01/15 00:22:57;;;;;;;2.05;1.20;;;21.20;47.20;;;;;;4967944;28;20034;-68
2021/01/15 00:25:23;;;;;;;1.60;1.02;;;21.20;47.10;;;;;;4967093;28;20038;-68
2021/01/15 00:27:49;;;;;;;1.75;1.20;;;21.20;47.20;;;;;;4968326;28;20505;-67
2021/01/15 00:30:14;;;;;;;2.45;1.20;;;21.20;47.10;;;;;;4952094;28;20162;-67
2021/01/15 00:32:40;;;;;;;2.58;1.20;;;21.20;47.20;;;;;;4967957;28;20034;-68
2021/01/15 00:35:07;;;;;;;1.88;1.00;;;21.10;47.10;;;;;;4967693;28;20042;-67
2021/01/15 00:37:33;;;;;;;2.08;1.30;;;21.10;47.10;;;;;;4960200;28;20073;-68
2021/01/15 00:39:59;;;;;;;1.25;0.88;;;21.10;47.10;;;;;;4951451;28;20046;-68
2021/01/15 00:42:25;;;;;;;2.33;1.00;;;21.10;47.10;;;;;;4960109;28;20034;-67
2021/01/15 00:44:55;;;;;;;1.25;0.90;;;21.00;47.10;;;;;;4965899;28;20154;-67
2021/01/15 00:47:21;;;;;;;1.50;0.90;;;21.10;47.10;;;;;;4956652;28;20102;-67
2021/01/15 00:49:48;;;;;;;1.50;1.00;;;21.00;47.10;;;;;;4966064;28;20062;-67
2021/01/15 00:52:15;;;;;;;1.45;0.90;;;21.00;47.10;;;;;;4949767;28;20340;-67
2021/01/15 00:54:41;;;;;;;1.92;0.98;;;21.00;47.10;;;;;;4973161;28;20505;-67
2021/01/15 00:57:07;;;;;;;1.90;1.00;;;21.00;47.60;;;;;;4949294;28;20114;-67
2021/01/15 00:59:32;;;;;;;2.10;1.20;;;21.00;47.10;;;;;;4949779;28;20530;-67
2021/01/15 01:01:58;;;;;;;1.67;1.05;;;21.00;47.10;;;;;;4973946;28;20126;-68
2021/01/15 01:04:24;;;;;;;1.90;1.10;;;21.00;47.10;;;;;;4948309;28;20114;-67
2021/01/15 01:06:49;;;;;;;1.50;0.98;;;20.90;47.10;;;;;;4953633;28;20035;-68
2021/01/15 01:09:15;;;;;;;1.10;0.88;;;20.90;47.10;;;;;;4950653;28;20391;-68
2021/01/15 01:11:41;;;;;;;1.55;0.98;;;20.90;47.10;;;;;;4967005;28;20026;-68
2021/01/15 01:14:06;;;;;;;1.65;1.00;;;20.90;47.10;;;;;;4967156;28;20038;-68
2021/01/15 01:16:32;;;;;;;2.40;1.10;;;20.90;47.10;;;;;;4957075;28;20042;-67
2021/01/15 01:18:59;;;;;;;1.92;1.08;;;20.90;47.10;;;;;;4964979;28;20031;-67
2021/01/15 01:21:26;;;;;;;1.80;1.00;;;20.90;47.10;;;;;;4967183;28;20029;-67
2021/01/15 01:23:52;;;;;;;2.03;1.08;;;20.80;47.10;;;;;;4965981;28;20090;-67
2021/01/15 01:26:19;;;;;;;1.58;1.05;;;20.80;47.10;;;;;;4946781;29;20043;-67
2021/01/15 01:28:45;;;;;;;2.10;1.20;;;20.80;47.10;;;;;;4962345;28;20455;-67
2021/01/15 01:31:12;;;;;;;1.90;1.20;;;20.80;47.10;;;;;;4955095;28;20026;-67
2021/01/15 01:33:39;;;;;;;1.30;0.90;;;20.80;47.10;;;;;;4965998;28;20031;-67
2021/01/15 01:36:06;;;;;;;1.88;1.10;;;20.80;47.10;;;;;;4966655;28;20031;-67
2021/01/15 01:38:32;;;;;;;1.27;0.95;;;20.80;47.10;;;;;;4964403;28;20031;-67
2021/01/15 01:40:58;;;;;;;2.00;1.10;;;20.80;47.10;;;;;;4955001;28;20507;-67
2021/01/15 01:43:24;;;;;;;1.30;0.95;;;20.70;47.00;;;;;;4966998;28;20512;-67
2021/01/15 01:45:49;;;;;;;1.73;1.00;;;20.70;47.00;;;;;;4964210;28;20039;-67
2021/01/15 01:48:16;;;;;;;1.73;1.00;;;20.70;47.10;;;;;;4953405;28;20550;-67
2021/01/15 01:50:42;;;;;;;2.03;1.02;;;20.70;47.60;;;;;;4969043;28;20480;-67
2021/01/15 01:53:12;;;;;;;2.17;1.05;;;20.70;47.10;;;;;;4969610;28;20147;-67
2021/01/15 01:55:38;;;;;;;1.92;1.05;;;20.70;47.10;;;;;;4952303;28;20226;-67
2021/01/15 01:58:04;;;;;;;1.95;1.10;;;20.70;47.10;;;;;;4960144;28;20081;-67
2021/01/15 02:00:30;;;;;;;1.23;0.90;;;20.70;47.10;;;;;;4966743;28;20042;-67
2021/01/15 02:02:56;;;;;;;1.67;1.10;;;20.70;47.10;;;;;;4970683;28;20362;-67
2021/01/15 02:05:21;;;;;;;1.63;1.10;;;20.70;47.10;;;;;;4964312;28;20035;-67
2021/01/15 02:07:50;;;;;;;1.65;1.00;;;20.70;47.10;;;;;;4971157;28;20122;-67
2021/01/15 02:10:23;;;;;;;2.05;1.00;;;20.60;47.10;;;;;;4968427;28;20030;-67
2021/01/15 02:12:58;;;;;;;2.20;1.00;;;20.60;47.10;;;;;;4970828;28;20038;-67
2021/01/15 02:15:37;;;;;;;1.70;1.00;;;20.60;47.10;;;;;;4969155;28;20045;-67
2021/01/15 02:18:10;;;;;;;1.60;1.00;;;20.60;47.10;;;;;;4968987;28;20058;-67
2021/01/15 02:21:02;;;;;;;1.40;0.90;;;20.60;47.10;;;;;;4954150;28;20377;-67
2021/01/15 02:23:37;;;;;;;1.33;0.88;;;20.60;47.10;;;;;;4956485;28;20042;-67
2021/01/15 02:26:32;;;;;;;1.58;1.00;;;20.60;47.10;;;;;;4951518;28;20039;-67
2021/01/15 02:29:18;;;;;;;1.10;0.80;;;20.50;47.10;;;;;;4958090;28;20053;-67
2021/01/15 02:31:47;;;;;;;1.45;1.00;;;20.50;47.10;;;;;;4969614;28;20035;-67
2021/01/15 02:34:43;;;;;;;1.40;0.98;;;20.50;47.10;;;;;;4959921;28;20818;-67
2021/01/15 02:37:30;;;;;;;1.38;0.85;;;20.50;47.10;;;;;;4968961;28;20062;-67
2021/01/15 02:40:14;;;;;;;1.23;0.95;;;20.50;47.10;;;;;;4954723;28;20032;-67
2021/01/15 02:42:41;;;;;;;0.90;0.70;;;20.50;47.10;;;;;;4963337;28;20027;-67
2021/01/15 02:45:12;;;;;;;1.38;0.80;;;20.50;47.10;;;;;;4976692;28;20552;-67
2021/01/15 02:47:48;;;;;;;1.67;1.00;;;20.50;47.20;;;;;;4960239;28;20035;-67
2021/01/15 02:50:15;;;;;;;1.58;1.00;;;20.50;47.10;;;;;;4953832;28;20035;-67
2021/01/15 02:52:42;;;;;;;1.38;0.90;;;20.40;47.10;;;;;;4951205;28;20214;-67
2021/01/15 02:55:09;;;;;;;1.35;1.00;;;20.50;47.20;;;;;;4964975;28;20042;-67
2021/01/15 02:57:35;;;;;;;1.80;1.08;;;20.40;47.10;;;;;;4989963;28;20045;-67
2021/01/15 03:00:01;;;;;;;1.58;1.05;;;20.40;47.20;;;;;;4956083;28;20027;-67
2021/01/15 03:02:39;;;;;;;1.13;0.82;;;20.40;47.20;;;;;;4964245;28;20091;-67
2021/01/15 03:05:21;;;;;;;1.17;0.77;;;20.40;47.20;;;;;;4949229;28;20336;-67
2021/01/15 03:07:51;;;;;;;1.33;0.90;;;20.40;47.20;;;;;;4963746;28;20435;-67
2021/01/15 03:10:21;;;;;;;;;;;20.40;47.20;;;;;;4958931;28;20030;-67
2021/01/15 03:12:49;;;;;;;1.42;0.77;;;20.30;47.10;;;;;;4961948;28;19910;-67
2021/01/15 03:15:16;;;;;;;1.55;0.82;;;20.40;47.20;;;;;;4966334;28;20046;-67
2021/01/15 03:17:45;;;;;;;2.03;0.90;;;20.30;47.10;;;;;;4956082;28;20114;-67
2021/01/15 03:20:11;;;;;;;1.60;0.80;;;20.40;47.20;;;;;;4967625;28;20097;-67
2021/01/15 03:22:44;;;;;;;1.13;0.90;;;20.30;47.20;;;;;;4969020;28;20674;-67
2021/01/15 03:25:11;;;;;;;1.55;0.95;;;20.30;47.20;;;;;;4966647;28;20022;-67
2021/01/15 03:27:54;;;;;;;1.23;0.70;;;20.30;47.20;;;;;;4965426;28;20042;-67
2021/01/15 03:30:30;;;;;;;1.13;0.80;;;20.30;47.20;;;;;;4954505;28;20093;-67
2021/01/15 03:33:04;;;;;;;1.52;0.88;;;20.30;47.20;;;;;;4950082;28;20113;-67
2021/01/15 03:35:31;;;;;;;1.27;0.98;;;20.30;47.20;;;;;;4950264;28;20090;-67
2021/01/15 03:38:02;;;;;;;1.23;0.90;;;20.30;47.20;;;;;;4958728;28;20489;-67
2021/01/15 03:40:30;;;;;;;1.35;0.80;;;20.30;47.20;;;;;;4962646;28;20411;-67
2021/01/15 03:42:56;;;;;;;1.17;0.80;;;20.30;47.20;;;;;;4969224;28;20483;-67
2021/01/15 03:45:22;;;;;;;1.00;0.70;;;20.30;47.30;;;;;;4967215;28;20124;-67
2021/01/15 03:47:48;;;;;;;1.20;0.80;;;20.30;47.30;;;;;;4965539;28;20027;-67
2021/01/15 03:50:14;;;;;;;1.10;0.82;;;20.30;47.30;;;;;;4965953;28;20039;-67
2021/01/15 03:52:40;;;;;;;1.33;0.80;;;20.30;47.30;;;;;;4964895;28;20033;-67
2021/01/15 03:55:06;;;;;;;1.33;0.90;;;20.30;47.30;;;;;;4956542;28;20039;-67
2021/01/15 03:57:32;;;;;;;1.33;0.88;;;20.30;47.30;;;;;;4961492;28;20035;-67
2021/01/15 03:59:57;;;;;;;1.60;0.90;;;20.30;47.30;;;;;;4953168;28;20414;-67
2021/01/15 04:02:23;;;;;;;1.15;0.80;;;20.30;47.30;;;;;;4963668;28;20034;-67
2021/01/15 04:04:49;;;;;;;1.20;0.90;;;20.20;47.30;;;;;;4957040;28;20042;-67
2021/01/15 04:07:18;;;;;;;1.70;0.88;;;20.20;47.30;;;;;;4964219;28;20019;-67
2021/01/15 04:09:44;;;;;;;1.27;1.00;;;20.20;47.30;;;;;;4963215;28;20062;-67
2021/01/15 04:12:11;;;;;;;1.23;0.80;;;20.20;47.30;;;;;;4968093;28;20039;-67
2021/01/15 04:14:40;;;;;;;1.13;0.80;;;20.20;47.30;;;;;;4957674;28;20386;-67
2021/01/15 04:17:07;;;;;;;1.42;0.90;;;20.20;47.30;;;;;;4948210;28;20093;-67
2021/01/15 04:19:32;;;;;;;1.05;0.80;;;20.20;47.30;;;;;;4963224;28;20039;-67
2021/01/15 04:21:58;;;;;;;1.30;0.90;;;20.20;47.30;;;;;;4948957;28;20042;-67
2021/01/15 04:24:24;;;;;;;1.00;0.70;;;20.20;47.40;;;;;;4957736;28;20489;-67
2021/01/15 04:26:53;;;;;;;0.98;0.80;;;20.20;47.40;;;;;;4948690;28;20046;-67
2021/01/15 04:29:19;;;;;;;;;;;20.20;47.40;;;;;;4954427;28;20035;-67
2021/01/15 04:31:45;;;;;;;0.80;0.60;;;20.20;47.40;;;;;;4966615;28;19914;-67
2021/01/15 04:34:10;;;;;;;1.30;0.80;;;20.20;47.40;;;;;;4965312;28;20038;-67
2021/01/15 04:36:36;;;;;;;0.98;0.70;;;20.20;47.40;;;;;;4948894;28;20117;-67
2021/01/15 04:39:02;;;;;;;1.30;0.70;;;20.20;47.50;;;;;;4956928;28;20023;-67
2021/01/15 04:41:30;;;;;;;0.88;0.70;;;20.20;47.50;;;;;;4947992;28;20149;-67
2021/01/15 04:43:56;;;;;;;1.70;0.85;;;20.20;47.50;;;;;;4950843;28;20485;-67
2021/01/15 04:46:24;;;;;;;0.90;0.70;;;20.10;47.40;;;;;;4966071;28;20026;-67
2021/01/15 04:48:51;;;;;;;1.13;0.80;;;20.20;47.50;;;;;;4962976;28;20114;-67
2021/01/15 04:51:20;;;;;;;1.02;0.73;;;20.10;47.50;;;;;;4948253;28;20471;-67
2021/01/15 04:53:51;;;;;;;0.98;0.65;;;20.10;47.50;;;;;;4955673;28;20042;-67
2021/01/15 04:56:18;;;;;;;0.90;0.70;;;20.10;47.50;;;;;;4945576;29;20035;-67
2021/01/15 04:58:47;;;;;;;1.70;0.80;;;20.10;47.50;;;;;;4955176;28;20035;-67
2021/01/15 05:01:16;;;;;;;0.88;0.80;;;20.10;47.50;;;;;;4955737;28;20440;-67
2021/01/15 05:03:45;;;;;;;1.05;0.80;;;20.10;47.50;;;;;;4960180;28;20047;-67
2021/01/15 05:06:15;;;;;;;1.10;0.80;;;20.10;47.50;;;;;;4956959;28;20031;-67
2021/01/15 05:08:49;;;;;;;0.95;0.70;;;20.10;47.60;;;;;;4955679;28;20035;-67
2021/01/15 05:11:14;;;;;;;0.55;0.55;;;20.10;47.60;;;;;;4961283;28;20423;-67
2021/01/15 05:13:41;;;;;;;1.40;0.80;;;20.10;47.60;;;;;;4963073;28;20173;-67
2021/01/15 05:16:08;;;;;;;1.25;0.80;;;20.00;47.60;;;;;;4954651;28;20038;-67
2021/01/15 05:18:38;;;;;;;1.15;0.80;;;20.10;47.70;;;;;;4955352;28;20158;-67
2021/01/15 05:21:03;;;;;;;0.60;0.60;;;20.10;47.70;;;;;;4962046;28;20019;-67
2021/01/15 05:23:29;;;;;;;1.10;0.73;;;20.10;47.70;;;;;;4971224;28;20027;-67
2021/01/15 05:25:55;;;;;;;0.93;0.70;;;20.10;47.70;;;;;;4964654;28;20035;-67
2021/01/15 05:28:21;;;;;;;0.65;0.60;;;20.00;47.70;;;;;;4952362;28;20130;-67
2021/01/15 05:30:58;;;;;;;0.70;0.68;;;20.00;47.70;;;;;;4953477;28;20039;-67
2021/01/15 05:33:24;;;;;;;1.60;0.98;;;20.00;47.70;;;;;;4968954;28;20070;-67
2021/01/15 05:35:53;;;;;;;1.05;0.70;;;20.00;47.70;;;;;;4971100;28;20062;-67
2021/01/15 05:38:22;;;;;;;1.85;0.80;;;20.00;47.70;;;;;;4970939;28;20047;-67
2021/01/15 05:40:49;;;;;;;1.77;0.80;;;20.00;47.70;;;;;;4969232;28;20129;-67
2021/01/15 05:43:25;;;;;;;0.80;0.63;;;20.00;47.70;;;;;;4968469;28;20037;-67
2021/01/15 05:46:08;;;;;;;0.98;0.70;;;20.00;47.70;;;;;;4964204;28;20039;-67
2021/01/15 05:48:36;;;;;;;1.20;0.70;;;20.00;47.70;;;;;;4954181;28;20026;-67
2021/01/15 05:51:02;;;;;;;0.95;0.70;;;20.00;47.70;;;;;;4951370;28;20031;-67
2021/01/15 05:53:41;;;;;;;1.25;0.90;;;20.00;47.70;;;;;;4951694;28;20086;-67
2021/01/15 05:56:08;;;;;;;0.82;0.63;;;20.00;47.70;;;;;;4962060;28;20402;-67
2021/01/15 05:58:34;;;;;;;0.93;0.70;;;20.00;47.70;;;;;;4968068;28;20031;-67
2021/01/15 06:00:59;;;;;;;0.93;0.70;;;20.00;47.70;;;;;;4953998;28;20039;-67
2021/01/15 06:03:25;;;;;;;1.15;0.73;;;19.90;47.70;;;;;;4968792;28;20428;-67
2021/01/15 06:05:51;;;;;;;1.25;0.80;;;19.90;47.70;;;;;;4969727;28;20034;-67
2021/01/15 06:08:18;;;;;;;0.80;0.70;;;20.00;47.70;;;;;;4968288;28;20114;-67
2021/01/15 06:10:46;;;;;;;0.82;0.60;;;20.00;47.70;;;;;;4956699;28;20027;-67
2021/01/15 06:13:36;;;;;;;1.15;0.70;;;19.90;47.70;;;;;;4961054;28;20027;-67
2021/01/15 06:16:03;;;;;;;0.73;0.60;;;19.90;47.70;;;;;;4955303;28;20027;-67
2021/01/15 06:18:29;;;;;;;1.30;0.80;;;19.90;47.70;;;;;;4965446;28;20046;-67
2021/01/15 06:21:09;;;;;;;0.60;0.60;;;19.90;47.70;;;;;;4963076;28;20034;-67
2021/01/15 06:23:41;;;;;;;1.58;0.70;;;19.90;47.70;;;;;;4964630;28;20059;-67
2021/01/15 06:26:09;;;;;;;1.20;0.60;;;19.90;47.70;;;;;;4960270;28;20057;-68
2021/01/15 06:28:37;;;;;;;1.30;0.70;;;19.90;47.70;;;;;;4963063;28;20478;-68
2021/01/15 06:31:07;;;;;;;0.80;0.70;;;19.90;47.70;;;;;;4956294;28;20597;-68
2021/01/15 06:33:33;;;;;;;1.20;0.80;;;19.90;47.70;;;;;;4964445;28;20030;-68
2021/01/15 06:35:58;;;;;;;0.85;0.70;;;19.90;47.80;;;;;;4965335;28;20046;-68
2021/01/15 06:38:29;;;;;;;0.98;0.75;;;19.90;47.70;;;;;;4963385;28;20062;-68
2021/01/15 06:40:56;;;;;;;0.60;0.60;;;19.90;47.70;;;;;;4951627;28;20038;-68
2021/01/15 06:43:32;;;;;;;0.68;0.63;;;19.90;47.80;;;;;;4967270;28;20607;-68
2021/01/15 06:46:02;;;;;;;0.90;0.68;;;19.90;47.80;;;;;;4947681;28;20031;-68
2021/01/15 06:48:33;;;;;;;0.65;0.63;;;19.90;47.80;;;;;;4955129;28;20148;-68
2021/01/15 06:50:59;;;;;;;0.93;0.70;;;19.90;47.80;;;;;;4949847;28;20880;-68
2021/01/15 06:53:31;;;;;;;1.38;0.73;;;19.90;47.70;;;;;;4956386;28;20125;-68
2021/01/15 06:56:01;;;;;;;1.27;0.80;;;19.90;47.70;;;;;;4966502;28;20089;-68
2021/01/15 06:58:40;;;;;;;1.02;0.70;;;19.90;47.70;;;;;;4968594;28;20039;-68
2021/01/15 07:01:24;;;;;;;0.90;0.60;;;19.90;47.70;;;;;;4965572;28;20106;-68
2021/01/15 07:04:07;;;;;;;0.80;0.60;;;19.90;47.60;;;;;;4957833;28;20027;-68
2021/01/15 07:06:34;;;;;;;0.77;0.60;;;19.90;47.70;;;;;;4950417;28;20106;-69
2021/01/15 07:09:11;;;;;;;0.80;0.52;;;19.90;47.70;;;;;;4964240;28;20489;-70
2021/01/15 07:11:42;;;;;;;0.88;0.55;;;19.90;47.70;;;;;;4961347;28;20031;-69
2021/01/15 07:14:08;;;;;;;0.90;0.70;;;19.90;47.80;;;;;;4965696;28;20658;-71
2021/01/15 07:16:37;;;;;;;1.05;0.65;;;19.90;47.80;;;;;;4957635;28;20046;-69
2021/01/15 07:19:05;;;;;;;0.52;0.50;;;19.90;47.80;;;;;;4967515;28;20038;-69
2021/01/15 07:21:38;;;;;;;0.57;0.52;;;19.90;47.80;;;;;;4964200;28;20039;-68
2021/01/15 07:24:09;;;;;;;0.70;0.55;;;19.90;47.90;;;;;;4961148;28;20602;-69
2021/01/15 07:26:42;;;;;;;0.70;0.60;;;19.80;47.80;;;;;;4965497;28;20031;-68
2021/01/15 07:29:14;;;;;;;0.60;0.52;;;19.80;47.90;;;;;;4969253;28;20046;-69
2021/01/15 07:31:44;;;;;;;0.60;0.50;;;19.90;48.00;;;;;;4948859;28;20094;-69
2021/01/15 07:34:18;;;;;;;0.50;0.40;;;19.80;47.90;;;;;;4952119;28;20031;-68
2021/01/15 07:36:44;;;;;;;0.57;0.50;;;19.80;48.00;;;;;;4966440;28;20525;-68
2021/01/15 07:39:13;;;;;;;0.60;0.60;;;19.80;48.00;;;;;;4956895;28;20162;-68
2021/01/15 07:41:48;;;;;;;0.50;0.50;;;19.80;48.10;;;;;;4964017;28;20031;-69
2021/01/15 07:44:23;;;;;;;1.55;0.60;;;19.80;48.10;;;;;;4963390;28;20125;-68
2021/01/15 07:46:52;;;;;;;1.00;0.70;;;19.80;48.20;;;;;;4952237;28;20557;-68
2021/01/15 07:49:18;;;;;;;0.60;0.50;;;19.80;48.10;;;;;;4964788;28;20595;-69
2021/01/15 07:52:04;;;;;;;0.80;0.60;;;19.80;48.10;;;;;;4953234;28;20031;-69
2021/01/15 07:54:51;;;;;;;0.50;0.50;;;19.80;48.20;;;;;;4961838;28;20118;-68
2021/01/15 07:57:18;;;;;;;0.65;0.57;;;19.80;48.20;;;;;;4966183;28;20564;-68
2021/01/15 07:59:44;;;;;;;0.68;0.55;;;19.80;48.20;;;;;;4955708;28;20760;-69
2021/01/15 08:02:10;;;;;;;0.90;0.60;;;19.80;48.20;;;;;;4956736;28;20031;-70
2021/01/15 08:04:35;;;;;;;0.70;0.60;;;19.80;48.20;;;;;;4954623;28;20101;-68
2021/01/15 08:07:28;;;;;;;3.72;1.38;;;19.80;48.30;;;;;;4959293;28;20027;-71
2021/01/15 08:09:54;;;;;;;6.00;4.22;;;19.80;36.60;;;;;;4950645;28;20864;-70
2021/01/15 08:12:20;;;;;;;5.80;4.60;;;19.50;33.10;;;;;;4962516;28;20059;-69
2021/01/15 08:14:46;;;;;;;3.72;2.75;;;19.00;30.00;;;;;;4948617;28;20331;-69
2021/01/15 08:17:14;;;;;;;2.97;1.73;;;18.80;44.60;;;;;;4963685;28;20031;-70
2021/01/15 08:19:41;;;;;;;3.65;1.48;;;18.90;46.70;;;;;;4957247;28;20102;-72
2021/01/15 08:22:12;;;;;;;4.97;1.30;;;19.10;47.50;;;;;;4964304;28;20153;-68
2021/01/15 08:24:45;;;;;;;1.92;1.10;;;19.30;49.30;;;;;;4960990;28;20090;-69
2021/01/15 08:27:16;;;;;;;2.45;1.00;;;19.40;50.50;;;;;;4963068;28;20505;-71
2021/01/15 08:29:42;;;;;;;3.45;1.00;;;19.50;51.00;;;;;;4960070;28;20062;-70
2021/01/15 08:32:08;;;;;;;3.60;1.20;;;19.60;51.00;;;;;;4966404;28;20162;-70
2021/01/15 08:34:35;;;;;;;3.60;1.15;;;19.70;51.20;;;;;;4965947;28;20043;-68
2021/01/15 08:37:03;;;;;;;2.85;1.08;;;19.80;51.00;;;;;;4961844;28;20075;-68
2021/01/15 08:39:28;;;;;;;2.90;1.10;;;19.80;50.50;;;;;;4949087;28;20438;-70
2021/01/15 08:41:59;;;;;;;3.38;1.30;;;19.90;50.70;;;;;;4958511;28;20042;-68
2021/01/15 08:44:34;;;;;;;3.45;1.10;;;19.90;50.70;;;;;;4954939;28;20497;-71
2021/01/15 08:47:04;;;;;;;3.78;1.00;;;20.00;51.00;;;;;;4958255;28;20370;-68
2021/01/15 08:49:29;;;;;;;4.30;1.10;;;20.00;51.20;;;;;;4958795;28;20467;-69
2021/01/15 08:51:58;;;;;;;2.92;1.00;;;20.10;50.90;;;;;;4960852;28;20039;-69
2021/01/15 08:54:25;;;;;;;2.38;1.00;;;20.10;50.40;;;;;;4960785;28;20038;-69
2021/01/15 08:56:52;;;;;;;1.58;0.90;;;20.10;50.20;;;;;;4962357;28;20065;-69
2021/01/15 08:59:28;;;;;;;1.25;0.80;;;20.20;50.20;;;;;;4957037;28;20798;-69
2021/01/15 09:01:56;;;;;;;3.00;0.80;;;20.20;50.00;;;;;;4952743;28;20041;-70
2021/01/15 09:04:24;;;;;;;2.58;0.80;;;20.20;49.70;;;;;;4967560;28;20019;-69
2021/01/15 09:06:56;;;;;;;1.42;0.80;;;20.20;49.40;;;;;;4956003;28;20046;-69
2021/01/15 09:09:24;;;;;;;3.20;1.45;;;20.20;49.20;;;;;;4955107;28;20394;-69
2021/01/15 09:11:51;;;;;;;1.77;1.02;;;20.30;49.00;;;;;;4963840;28;20045;-71
2021/01/15 09:14:24;;;;;;;1.70;1.00;;;20.30;48.90;;;;;;4962274;28;20054;-70
2021/01/15 09:16:52;;;;;;;1.48;0.90;;;20.30;48.90;;;;;;4954802;28;20058;-70
2021/01/15 09:19:18;;;;;;;1.40;0.83;;;20.40;48.80;;;;;;4958865;28;20055;-70
2021/01/15 09:21:51;;;;;;;1.40;0.82;;;20.40;48.70;;;;;;4965677;28;20054;-69
2021/01/15 09:24:21;;;;;;;1.45;0.80;;;20.40;48.70;;;;;;4956955;28;20426;-71
2021/01/15 09:26:54;;;;;;;1.38;0.80;;;20.50;48.60;;;;;;4971899;28;20370;-70
2021/01/15 09:29:19;;;;;;;1.50;1.00;;;20.50;48.60;;;;;;4958757;28;20038;-70
2021/01/15 09:31:45;;;;;;;2.03;0.80;;;20.50;48.90;;;;;;4971765;28;20552;-70
2021/01/15 09:34:12;;;;;;;1.25;0.80;;;20.60;48.80;;;;;;4963698;28;20114;-70
2021/01/15 09:36:41;;;;;;;1.45;0.80;;;20.60;48.70;;;;;;4962042;28;20030;-69
2021/01/15 09:39:07;;;;;;;1.45;0.80;;;20.60;48.70;;;;;;4963314;28;20079;-70
2021/01/15 09:41:33;;;;;;;1.30;0.88;;;20.70;49.10;;;;;;4953538;28;20079;-69
2021/01/15 09:43:59;;;;;;;1.48;0.80;;;20.70;49.20;;;;;;4961713;28;20042;-71
2021/01/15 09:46:29;;;;;;;2.92;1.00;;;20.80;49.60;;;;;;4966571;28;20038;-72
2021/01/15 09:48:58;;;;;;;1.45;0.85;;;20.90;49.80;;;;;;4956160;28;20038;-71
2021/01/15 09:51:28;;;;;;;1.52;0.98;;;20.90;49.70;;;;;;4969089;28;20026;-71
2021/01/15 09:53:55;;;;;;;2.15;0.90;;;21.00;49.90;;;;;;4962839;28;20019;-71
2021/01/15 09:56:28;;;;;;;1.33;0.82;;;21.00;50.10;;;;;;4964032;28;20086;-70
2021/01/15 09:58:59;;;;;;;1.27;0.95;;;21.10;50.20;;;;;;4957975;28;20050;-70
2021/01/15 10:01:25;;;;;;;0.98;0.70;;;21.20;50.40;;;;;;4960270;28;20031;-70
2021/01/15 10:03:56;;;;;;;1.45;0.90;;;21.20;50.50;;;;;;4958921;28;20027;-71
2021/01/15 10:06:22;;;;;;;1.30;0.90;;;21.20;50.80;;;;;;4964456;28;20039;-70
2021/01/15 10:08:48;;;;;;;1.65;0.85;;;21.30;50.80;;;;;;4962563;28;20031;-71
2021/01/15 10:11:21;;;;;;;1.17;0.73;;;21.40;51.20;;;;;;4964224;28;20516;-71
2021/01/15 10:13:55;;;;;;;1.90;1.00;;;21.40;51.20;;;;;;4969848;28;20541;-71
2021/01/15 10:16:22;;;;;;;1.50;0.80;;;21.50;51.40;;;;;;4965441;28;20106;-71
2021/01/15 10:18:48;;;;;;;1.88;0.70;;;21.50;51.60;;;;;;4974989;28;20054;-69
2021/01/15 10:21:13;;;;;;;2.42;0.90;;;21.60;51.60;;;;;;4967630;28;20066;-71
2021/01/15 10:23:39;;;;;;;1.00;0.70;;;21.60;51.70;;;;;;4969075;28;20075;-71
2021/01/15 10:26:05;;;;;;;1.27;0.80;;;21.70;51.90;;;;;;4962072;28;20037;-71
2021/01/15 10:28:31;;;;;;;1.15;0.70;;;21.70;51.90;;;;;;4969502;28;20039;-71
2021/01/15 10:30:57;;;;;;;2.25;0.95;;;21.70;52.30;;;;;;4964560;28;20058;-71
2021/01/15 10:33:23;;;;;;;1.40;0.82;;;21.80;52.40;;;;;;4969473;28;20858;-70
2021/01/15 10:35:52;;;;;;;1.75;0.85;;;21.80;52.60;;;;;;4966748;28;20069;-73
2021/01/15 10:38:18;;;;;;;1.02;0.70;;;21.90;52.70;;;;;;4956947;28;20038;-70
2021/01/15 10:40:45;;;;;;;1.30;0.73;;;21.90;53.00;;;;;;4955113;28;20049;-72
2021/01/15 10:43:11;;;;;;;2.17;0.98;;;22.00;52.90;;;;;;4952123;28;20030;-71
2021/01/15 10:45:37;;;;;;;1.50;0.80;;;22.00;53.00;;;;;;4968039;28;20034;-71
2021/01/15 10:48:03;;;;;;;1.92;0.80;;;22.10;53.10;;;;;;4960358;28;20035;-72
2021/01/15 10:50:32;;;;;;;0.90;0.80;;;22.10;53.30;;;;;;4955340;28;20050;-69
2021/01/15 10:52:58;;;;;;;1.13;0.70;;;22.10;53.30;;;;;;4963044;28;20050;-70
2021/01/15 10:55:24;;;;;;;1.13;0.95;;;22.20;53.40;;;;;;4969752;28;20100;-71
2021/01/15 10:57:49;;;;;;;1.58;0.80;;;22.20;53.40;;;;;;4952029;28;20061;-70
2021/01/15 11:00:16;;;;;;;0.85;0.70;;;22.30;54.00;;;;;;4952443;28;20089;-70
2021/01/15 11:02:47;;;;;;;1.30;0.80;;;22.30;53.80;;;;;;4970010;28;20377;-71
2021/01/15 11:05:13;;;;;;;1.02;0.75;;;22.40;54.40;;;;;;4965449;28;20033;-71
2021/01/15 11:07:38;;;;;;;1.30;0.80;;;22.40;54.00;;;;;;4976998;28;20370;-72
2021/01/15 11:10:05;;;;;;;1.10;0.70;;;22.40;54.10;;;;;;4956605;28;20119;-71
2021/01/15 11:12:31;;;;;;;1.10;0.70;;;22.50;54.30;;;;;;4951546;28;20509;-73
2021/01/15 11:14:56;;;;;;;1.50;0.80;;;22.50;54.30;;;;;;4964441;28;20066;-72
2021/01/15 11:17:22;;;;;;;1.55;0.80;;;22.60;54.80;;;;;;4959844;28;20070;-70
2021/01/15 11:19:47;;;;;;;2.20;0.90;;;22.60;54.60;;;;;;4964792;28;20057;-70
2021/01/15 11:22:13;;;;;;;1.35;0.80;;;22.70;55.00;;;;;;4963960;28;20038;-70
2021/01/15 11:24:38;;;;;;;2.42;1.05;;;22.70;55.10;;;;;;4950321;28;20070;-71
2021/01/15 11:27:04;;;;;;;4.72;3.30;;;22.70;51.80;;;;;;4966117;28;20462;-71
2021/01/15 11:29:30;;;;;;;4.57;3.25;;;22.40;38.00;;;;;;4955451;28;20042;-71
2021/01/15 11:31:55;;;;;;;4.15;3.13;;;22.20;37.50;;;;;;4955227;28;20035;-72
2021/01/15 11:34:22;;;;;;;4.00;2.83;;;21.90;35.80;;;;;;4964584;28;20027;-71
2021/01/15 11:36:48;;;;;;;3.40;2.70;;;21.80;36.60;;;;;;4955071;28;20042;-72
2021/01/15 11:39:15;;;;;;;5.30;2.47;;;21.80;38.00;;;;;;4962322;28;20043;-72
2021/01/15 11:41:41;;;;;;;3.92;2.58;;;21.80;39.20;;;;;;4966218;28;20066;-71
2021/01/15 11:44:08;;;;;;;3.20;2.20;;;21.80;39.90;;;;;;4966613;28;20027;-71
2021/01/15 11:46:35;;;;;;;2.83;1.80;;;21.80;40.40;;;;;;4961377;28;20090;-72
2021/01/15 11:49:01;;;;;;;2.75;1.88;;;21.80;41.30;;;;;;4948286;28;20031;-71
2021/01/15 11:51:27;;;;;;;2.47;1.70;;;21.80;41.20;;;;;;4956659;28;20035;-73
2021/01/15 11:53:53;;;;;;;3.33;1.80;;;21.80;41.50;;;;;;4964911;28;20433;-73
2021/01/15 11:56:19;;;;;;;2.42;1.65;;;21.80;41.90;;;;;;4960738;28;20050;-72
2021/01/15 11:58:45;;;;;;;2.88;1.55;;;21.80;42.10;;;;;;4950516;28;20027;-70
2021/01/15 12:01:10;;;;;;;2.88;1.73;;;21.80;42.30;;;;;;4953336;28;20023;-70
2021/01/15 12:03:36;;;;;;;2.45;1.60;;;21.70;42.50;;;;;;4947503;29;20184;-73
2021/01/15 12:06:03;;;;;;;2.35;1.60;;;21.80;43.20;;;;;;4957521;28;20097;-70
2021/01/15 12:08:28;;;;;;;2.80;1.70;;;21.70;42.80;;;;;;4963410;28;20039;-71
2021/01/15 12:11:06;;;;;;;2.42;1.40;;;21.70;43.00;;;;;;4972427;28;20023;-70
2021/01/15 12:13:34;;;;;;;2.33;1.50;;;21.70;43.20;;;;;;4953270;28;20027;-71
2021/01/15 12:16:00;;;;;;;2.38;1.50;;;21.70;43.30;;;;;;4966195;28;20133;-72
2021/01/15 12:18:26;;;;;;;2.40;1.60;;;21.70;43.40;;;;;;4962190;28;20093;-71
2021/01/15 12:20:52;;;;;;;2.67;1.42;;;21.70;43.60;;;;;;4951738;28;20038;-69
2021/01/15 12:23:19;;;;;;;2.20;1.35;;;21.70;43.70;;;;;;4953236;28;20035;-71
2021/01/15 12:25:44;;;;;;;2.28;1.60;;;21.70;43.80;;;;;;4957435;28;20027;-69
2021/01/15 12:28:12;;;;;;;2.50;1.50;;;21.70;43.90;;;;;;4955115;28;20045;-70
2021/01/15 12:30:38;;;;;;;1.85;1.33;;;21.70;44.00;;;;;;4948386;28;20031;-71
2021/01/15 12:33:05;;;;;;;2.15;1.38;;;21.70;44.10;;;;;;4958135;28;20077;-72
2021/01/15 12:35:31;;;;;;;2.08;1.30;;;21.70;44.20;;;;;;4957017;28;20949;-70
2021/01/15 12:38:09;;;;;;;2.28;1.30;;;21.70;44.30;;;;;;4958162;28;20106;-70
2021/01/15 12:40:36;;;;;;;3.35;1.38;;;21.70;44.40;;;;;;4956744;28;20026;-70
2021/01/15 12:43:03;;;;;;;1.85;1.23;;;21.70;44.50;;;;;;4961898;28;20363;-70
2021/01/15 12:45:31;;;;;;;2.00;1.30;;;21.70;44.50;;;;;;4965861;28;20046;-70
2021/01/15 12:47:57;;;;;;;2.30;1.20;;;21.70;44.60;;;;;;4968073;28;20035;-70
2021/01/15 12:50:22;;;;;;;1.77;1.20;;;21.70;44.70;;;;;;4964154;28;20681;-70
2021/01/15 12:52:48;;;;;;;2.20;1.30;;;21.70;44.70;;;;;;4952599;28;20153;-69
2021/01/15 12:55:14;;;;;;;1.92;1.20;;;21.70;44.80;;;;;;4954752;28;20043;-70